GLO1910 SBGR-SBSG
Flight info
| Callsign | GLO1910 |
|---|---|
| Flight time | 2h 50m |
| Altitude | 37000 |
| Route | VUMEV UZ14 ENVOG UZ1 LODOT UZ72 TOGUN |
| Aircraft | B738/M-SDFGIKLORWXY/LB1 |
Departure
| Time | 2026-05-06 21:15 |
|---|---|
| Airport | São Paulo/Guarulhos–Governor André Franco Montoro International Airport (SBGR) |
Arrival
| Time | 2026-05-07 00:05 |
|---|---|
| Airport | Rio Grande do Norte/São Gonçalo do Amarante–Governador Aluízio Alves International Airport (SBSG) |
| Time | Latitude | Longitude | Altitude | Speed | Heading |
|---|---|---|---|---|---|
| 2026-05-06 20:59 | -23.42904 | -46.48363 | 2464 ft | 0 kts | 86° |
| 2026-05-06 21:09 | -23.42906 | -46.48387 | 2464 ft | 3 kts | 84° |
| 2026-05-06 21:10 | -23.42907 | -46.48409 | 2464 ft | 4 kts | 114° |
| 2026-05-06 21:10 | -23.42890 | -46.48426 | 2467 ft | 4 kts | 172° |
| 2026-05-06 21:10 | -23.42869 | -46.48427 | 2464 ft | 1 kts | 180° |
| 2026-05-06 21:13 | -23.42870 | -46.48427 | 2464 ft | 1 kts | 180° |
| 2026-05-06 21:13 | -23.42894 | -46.48427 | 2464 ft | 7 kts | 180° |
| 2026-05-06 21:13 | -23.42960 | -46.48447 | 2464 ft | 13 kts | 188° |
| 2026-05-06 21:13 | -23.43071 | -46.48436 | 2464 ft | 19 kts | 165° |
| 2026-05-06 21:14 | -23.43210 | -46.48393 | 2470 ft | 21 kts | 163° |
| 2026-05-06 21:14 | -23.43352 | -46.48346 | 2468 ft | 21 kts | 163° |
| 2026-05-06 21:14 | -23.43405 | -46.48249 | 2460 ft | 17 kts | 76° |
| 2026-05-06 21:14 | -23.43353 | -46.48055 | 2462 ft | 54 kts | 73° |
| 2026-05-06 21:15 | -23.43177 | -46.47406 | 2461 ft | 123 kts | 73° |
| 2026-05-06 21:15 | -23.42879 | -46.46312 | 2502 ft | 173 kts | 73° |
| 2026-05-06 21:15 | -23.42526 | -46.45045 | 3223 ft | 175 kts | 73° |
| 2026-05-06 21:15 | -23.42158 | -46.43735 | 3885 ft | 190 kts | 73° |
| 2026-05-06 21:16 | -23.41732 | -46.42245 | 4158 ft | 219 kts | 72° |
| 2026-05-06 21:16 | -23.41246 | -46.40581 | 4427 ft | 240 kts | 72° |
| 2026-05-06 21:16 | -23.40723 | -46.38813 | 4944 ft | 248 kts | 72° |
| 2026-05-06 21:16 | -23.40185 | -46.37004 | 5497 ft | 258 kts | 72° |
| 2026-05-06 21:17 | -23.39444 | -46.35167 | 5963 ft | 271 kts | 60° |
| 2026-05-06 21:17 | -23.38431 | -46.33410 | 6781 ft | 275 kts | 57° |
| 2026-05-06 21:17 | -23.37381 | -46.31661 | 7702 ft | 277 kts | 57° |
| 2026-05-06 21:17 | -23.36321 | -46.29887 | 8487 ft | 282 kts | 57° |
| 2026-05-06 21:18 | -23.35258 | -46.28079 | 9283 ft | 286 kts | 57° |
| 2026-05-06 21:18 | -23.34183 | -46.26238 | 10063 ft | 290 kts | 58° |
| 2026-05-06 21:18 | -23.33093 | -46.24366 | 10541 ft | 307 kts | 58° |
| 2026-05-06 21:18 | -23.31910 | -46.22330 | 10852 ft | 327 kts | 58° |
| 2026-05-06 21:19 | -23.30681 | -46.20214 | 11501 ft | 333 kts | 58° |
| 2026-05-06 21:19 | -23.29421 | -46.18043 | 12286 ft | 336 kts | 58° |
| 2026-05-06 21:19 | -23.28165 | -46.15879 | 13031 ft | 340 kts | 58° |
| 2026-05-06 21:19 | -23.26907 | -46.13713 | 13709 ft | 345 kts | 58° |
| 2026-05-06 21:20 | -23.25619 | -46.11493 | 14422 ft | 349 kts | 58° |
| 2026-05-06 21:20 | -23.24315 | -46.09249 | 15102 ft | 353 kts | 58° |
| 2026-05-06 21:20 | -23.22991 | -46.06974 | 15737 ft | 359 kts | 59° |
| 2026-05-06 21:20 | -23.21501 | -46.04776 | 16337 ft | 366 kts | 45° |
| 2026-05-06 21:21 | -23.19391 | -46.03201 | 16954 ft | 372 kts | 24° |
| 2026-05-06 21:21 | -23.16950 | -46.02223 | 17605 ft | 376 kts | 19° |
| 2026-05-06 21:21 | -23.14448 | -46.01314 | 18166 ft | 382 kts | 19° |
| 2026-05-06 21:21 | -23.11890 | -46.00466 | 18709 ft | 388 kts | 12° |
| 2026-05-06 21:22 | -23.09208 | -46.00059 | 19316 ft | 391 kts | 6° |
| 2026-05-06 21:22 | -23.06483 | -45.99773 | 19886 ft | 395 kts | 5° |
| 2026-05-06 21:22 | -23.03735 | -45.99495 | 20474 ft | 398 kts | 5° |
| 2026-05-06 21:22 | -23.00976 | -45.99196 | 21058 ft | 401 kts | 6° |
| 2026-05-06 21:23 | -22.98189 | -45.98871 | 21590 ft | 405 kts | 6° |
| 2026-05-06 21:23 | -22.95372 | -45.98527 | 22108 ft | 408 kts | 6° |
| 2026-05-06 21:23 | -22.92534 | -45.98175 | 22605 ft | 412 kts | 6° |
| 2026-05-06 21:23 | -22.89685 | -45.97749 | 23084 ft | 416 kts | 14° |
| 2026-05-06 21:24 | -22.87005 | -45.96554 | 23526 ft | 419 kts | 32° |
| 2026-05-06 21:24 | -22.84579 | -45.94791 | 24050 ft | 421 kts | 35° |
| 2026-05-06 21:24 | -22.82172 | -45.92950 | 24469 ft | 425 kts | 36° |
| 2026-05-06 21:24 | -22.79782 | -45.91097 | 24855 ft | 430 kts | 36° |
| 2026-05-06 21:25 | -22.77337 | -45.89207 | 25287 ft | 433 kts | 36° |
| 2026-05-06 21:25 | -22.74865 | -45.87313 | 25697 ft | 437 kts | 36° |
| 2026-05-06 21:25 | -22.72366 | -45.85413 | 26079 ft | 441 kts | 36° |
| 2026-05-06 21:25 | -22.69834 | -45.83500 | 26455 ft | 444 kts | 36° |
| 2026-05-06 21:26 | -22.67288 | -45.81583 | 26848 ft | 447 kts | 36° |
| 2026-05-06 21:26 | -22.64718 | -45.79653 | 27197 ft | 451 kts | 36° |
| 2026-05-06 21:26 | -22.62127 | -45.77709 | 27534 ft | 455 kts | 36° |
| 2026-05-06 21:26 | -22.59515 | -45.75750 | 27890 ft | 458 kts | 36° |
| 2026-05-06 21:27 | -22.56887 | -45.73780 | 28244 ft | 460 kts | 36° |
| 2026-05-06 21:27 | -22.54242 | -45.71797 | 28578 ft | 463 kts | 36° |
| 2026-05-06 21:27 | -22.51586 | -45.69807 | 28901 ft | 466 kts | 36° |
| 2026-05-06 21:27 | -22.48904 | -45.67798 | 29198 ft | 470 kts | 36° |
| 2026-05-06 21:28 | -22.46212 | -45.65783 | 29522 ft | 472 kts | 36° |
| 2026-05-06 21:28 | -22.43535 | -45.63779 | 29824 ft | 475 kts | 36° |
| 2026-05-06 21:28 | -22.40769 | -45.61710 | 30131 ft | 478 kts | 36° |
| 2026-05-06 21:28 | -22.38058 | -45.59683 | 30414 ft | 481 kts | 36° |
| 2026-05-06 21:29 | -22.35298 | -45.57620 | 30663 ft | 484 kts | 36° |
| 2026-05-06 21:29 | -22.32518 | -45.55544 | 30901 ft | 488 kts | 36° |
| 2026-05-06 21:29 | -22.29719 | -45.53454 | 31145 ft | 491 kts | 36° |
| 2026-05-06 21:29 | -22.26906 | -45.51356 | 31410 ft | 493 kts | 36° |
| 2026-05-06 21:30 | -22.24074 | -45.49243 | 31641 ft | 496 kts | 36° |
| 2026-05-06 21:30 | -22.21223 | -45.47118 | 31854 ft | 499 kts | 36° |
| 2026-05-06 21:30 | -22.18352 | -45.44979 | 32073 ft | 502 kts | 36° |
| 2026-05-06 21:30 | -22.15474 | -45.42836 | 32288 ft | 505 kts | 36° |
| 2026-05-06 21:31 | -22.12577 | -45.40680 | 32533 ft | 507 kts | 36° |
| 2026-05-06 21:31 | -22.09668 | -45.38515 | 32777 ft | 508 kts | 36° |
| 2026-05-06 21:31 | -22.06755 | -45.36349 | 33049 ft | 509 kts | 36° |
| 2026-05-06 21:31 | -22.03843 | -45.34177 | 33314 ft | 509 kts | 37° |
| 2026-05-06 21:32 | -22.01000 | -45.31913 | 33601 ft | 508 kts | 39° |
| 2026-05-06 21:32 | -21.95434 | -45.27186 | 34027 ft | 511 kts | 41° |
| 2026-05-06 21:32 | -21.92658 | -45.24791 | 34238 ft | 513 kts | 41° |
| 2026-05-06 21:33 | -21.89862 | -45.22389 | 34524 ft | 512 kts | 41° |
| 2026-05-06 21:33 | -21.87076 | -45.20016 | 34851 ft | 511 kts | 40° |
| 2026-05-06 21:33 | -21.84284 | -45.17652 | 35126 ft | 510 kts | 40° |
| 2026-05-06 21:33 | -21.81487 | -45.15293 | 35326 ft | 512 kts | 40° |
| 2026-05-06 21:34 | -21.78678 | -45.12928 | 35527 ft | 513 kts | 40° |
| 2026-05-06 21:34 | -21.76815 | -45.11362 | 35713 ft | 512 kts | 40° |
| 2026-05-06 21:34 | -21.73056 | -45.08203 | 36070 ft | 512 kts | 40° |
| 2026-05-06 21:34 | -21.70285 | -45.05874 | 36264 ft | 513 kts | 40° |
| 2026-05-06 21:35 | -21.68384 | -45.04276 | 36368 ft | 514 kts | 40° |
| 2026-05-06 21:35 | -21.65563 | -45.01906 | 36521 ft | 515 kts | 40° |
| 2026-05-06 21:35 | -21.62742 | -44.99537 | 36836 ft | 513 kts | 40° |
| 2026-05-06 21:35 | -21.59036 | -44.96427 | 37213 ft | 509 kts | 41° |
| 2026-05-06 21:36 | -21.54377 | -44.92520 | 37217 ft | 502 kts | 41° |
| 2026-05-06 21:36 | -21.48903 | -44.87933 | 37213 ft | 496 kts | 41° |
| 2026-05-06 21:37 | -21.43504 | -44.83411 | 37229 ft | 493 kts | 41° |
| 2026-05-06 21:37 | -21.38106 | -44.78894 | 37239 ft | 492 kts | 41° |
| 2026-05-06 21:38 | -21.32707 | -44.74387 | 37246 ft | 492 kts | 41° |
| 2026-05-06 21:38 | -21.27296 | -44.69880 | 37255 ft | 492 kts | 41° |
| 2026-05-06 21:39 | -21.21878 | -44.65368 | 37264 ft | 494 kts | 41° |
| 2026-05-06 21:39 | -21.16442 | -44.60837 | 37273 ft | 496 kts | 41° |
| 2026-05-06 21:40 | -21.10975 | -44.56281 | 37283 ft | 498 kts | 41° |
| 2026-05-06 21:40 | -21.05487 | -44.51711 | 37281 ft | 500 kts | 41° |
| 2026-05-06 21:41 | -20.99998 | -44.47145 | 37278 ft | 501 kts | 41° |
| 2026-05-06 21:41 | -20.94485 | -44.42570 | 37276 ft | 501 kts | 40° |
| 2026-05-06 21:42 | -20.88974 | -44.38011 | 37278 ft | 500 kts | 41° |
| 2026-05-06 21:42 | -20.83466 | -44.33457 | 37273 ft | 499 kts | 41° |
| 2026-05-06 21:43 | -20.77983 | -44.28925 | 37275 ft | 498 kts | 41° |
| 2026-05-06 21:43 | -20.72513 | -44.24408 | 37275 ft | 496 kts | 40° |
| 2026-05-06 21:44 | -20.67063 | -44.19910 | 37265 ft | 494 kts | 40° |
| 2026-05-06 21:44 | -20.61642 | -44.15426 | 37265 ft | 493 kts | 41° |
| 2026-05-06 21:45 | -20.56292 | -44.10928 | 37263 ft | 491 kts | 41° |
| 2026-05-06 21:45 | -20.50924 | -44.06421 | 37260 ft | 491 kts | 41° |
| 2026-05-06 21:46 | -20.45519 | -44.01966 | 37246 ft | 491 kts | 40° |
| 2026-05-06 21:46 | -20.40093 | -43.97549 | 37247 ft | 490 kts | 40° |
| 2026-05-06 21:47 | -20.34673 | -43.93133 | 37245 ft | 490 kts | 40° |
| 2026-05-06 21:47 | -20.29253 | -43.88709 | 37230 ft | 490 kts | 40° |
| 2026-05-06 21:48 | -20.23828 | -43.84282 | 37227 ft | 491 kts | 40° |
| 2026-05-06 21:48 | -20.18409 | -43.79865 | 37218 ft | 491 kts | 40° |
| 2026-05-06 21:49 | -20.12985 | -43.75447 | 37219 ft | 490 kts | 40° |
| 2026-05-06 21:49 | -20.07570 | -43.71041 | 37221 ft | 491 kts | 40° |
| 2026-05-06 21:50 | -20.02145 | -43.66631 | 37208 ft | 491 kts | 40° |
| 2026-05-06 21:50 | -19.96720 | -43.62223 | 37215 ft | 491 kts | 40° |
| 2026-05-06 21:51 | -19.91285 | -43.57812 | 37203 ft | 491 kts | 40° |
| 2026-05-06 21:51 | -19.85896 | -43.53437 | 37214 ft | 491 kts | 40° |
| 2026-05-06 21:52 | -19.80479 | -43.49032 | 37207 ft | 491 kts | 40° |
| 2026-05-06 21:52 | -19.75060 | -43.44626 | 37206 ft | 490 kts | 40° |
| 2026-05-06 21:53 | -19.69636 | -43.40222 | 37206 ft | 490 kts | 40° |
| 2026-05-06 21:53 | -19.64215 | -43.35824 | 37199 ft | 490 kts | 40° |
| 2026-05-06 21:54 | -19.58802 | -43.31436 | 37199 ft | 489 kts | 40° |
| 2026-05-06 21:54 | -19.53401 | -43.27058 | 37187 ft | 489 kts | 40° |
| 2026-05-06 21:55 | -19.48005 | -43.22688 | 37179 ft | 488 kts | 40° |
| 2026-05-06 21:55 | -19.42647 | -43.18352 | 37174 ft | 487 kts | 40° |
| 2026-05-06 21:56 | -19.37271 | -43.14004 | 37171 ft | 486 kts | 40° |
| 2026-05-06 21:56 | -19.31895 | -43.09661 | 37163 ft | 485 kts | 40° |
| 2026-05-06 21:57 | -19.26539 | -43.05337 | 37156 ft | 484 kts | 40° |
| 2026-05-06 21:57 | -19.21189 | -43.01022 | 37154 ft | 483 kts | 40° |
| 2026-05-06 21:58 | -19.15838 | -42.96710 | 37151 ft | 482 kts | 40° |
| 2026-05-06 21:58 | -19.10501 | -42.92413 | 37145 ft | 482 kts | 39° |
| 2026-05-06 21:59 | -19.05170 | -42.88123 | 37150 ft | 481 kts | 40° |
| 2026-05-06 21:59 | -18.99878 | -42.83868 | 37146 ft | 481 kts | 40° |
| 2026-05-06 22:00 | -18.94550 | -42.79588 | 37150 ft | 480 kts | 39° |
| 2026-05-06 22:00 | -18.89228 | -42.75321 | 37146 ft | 480 kts | 39° |
| 2026-05-06 22:01 | -18.83896 | -42.71059 | 37146 ft | 480 kts | 39° |
| 2026-05-06 22:01 | -18.78573 | -42.66805 | 37153 ft | 480 kts | 39° |
| 2026-05-06 22:02 | -18.73246 | -42.62550 | 37142 ft | 480 kts | 39° |
| 2026-05-06 22:02 | -18.67921 | -42.58300 | 37152 ft | 480 kts | 39° |
| 2026-05-06 22:03 | -18.62593 | -42.54053 | 37149 ft | 480 kts | 39° |
| 2026-05-06 22:03 | -18.57265 | -42.49809 | 37146 ft | 480 kts | 39° |
| 2026-05-06 22:04 | -18.51931 | -42.45562 | 37147 ft | 480 kts | 39° |
| 2026-05-06 22:04 | -18.46634 | -42.41348 | 37135 ft | 480 kts | 39° |
| 2026-05-06 22:05 | -18.41303 | -42.37109 | 37126 ft | 479 kts | 39° |
| 2026-05-06 22:05 | -18.35979 | -42.32878 | 37129 ft | 479 kts | 39° |
| 2026-05-06 22:06 | -18.30664 | -42.28659 | 37137 ft | 478 kts | 39° |
| 2026-05-06 22:06 | -18.25355 | -42.24445 | 37128 ft | 478 kts | 39° |
| 2026-05-06 22:07 | -18.20046 | -42.20230 | 37138 ft | 477 kts | 39° |
| 2026-05-06 22:07 | -18.14785 | -42.16056 | 37138 ft | 476 kts | 39° |
| 2026-05-06 22:08 | -18.09502 | -42.11867 | 37133 ft | 475 kts | 39° |
| 2026-05-06 22:08 | -18.04226 | -42.07688 | 37140 ft | 474 kts | 39° |
| 2026-05-06 22:09 | -17.98954 | -42.03514 | 37137 ft | 474 kts | 39° |
| 2026-05-06 22:09 | -17.93681 | -41.99344 | 37136 ft | 474 kts | 39° |
| 2026-05-06 22:10 | -17.88414 | -41.95180 | 37140 ft | 474 kts | 39° |
| 2026-05-06 22:10 | -17.83137 | -41.91013 | 37135 ft | 474 kts | 39° |
| 2026-05-06 22:11 | -17.77863 | -41.86851 | 37140 ft | 474 kts | 39° |
| 2026-05-06 22:11 | -17.73480 | -41.83394 | 37142 ft | 474 kts | 39° |
| 2026-05-06 22:12 | -17.67337 | -41.78553 | 37140 ft | 475 kts | 39° |
| 2026-05-06 22:12 | -17.62053 | -41.74392 | 37140 ft | 475 kts | 39° |
| 2026-05-06 22:13 | -17.56767 | -41.70233 | 37139 ft | 476 kts | 38° |
| 2026-05-06 22:13 | -17.51470 | -41.66067 | 37138 ft | 476 kts | 38° |
| 2026-05-06 22:14 | -17.46198 | -41.61924 | 37140 ft | 476 kts | 38° |
| 2026-05-06 22:14 | -17.40731 | -41.57924 | 37134 ft | 477 kts | 28° |
| 2026-05-06 22:15 | -17.34564 | -41.55530 | 37140 ft | 476 kts | 12° |
| 2026-05-06 22:15 | -17.28085 | -41.54119 | 37145 ft | 476 kts | 11° |
| 2026-05-06 22:16 | -17.21560 | -41.52673 | 37137 ft | 476 kts | 12° |
| 2026-05-06 22:16 | -17.15135 | -41.51183 | 37140 ft | 476 kts | 12° |
| 2026-05-06 22:17 | -17.08668 | -41.49676 | 37140 ft | 476 kts | 12° |
| 2026-05-06 22:17 | -17.02206 | -41.48168 | 37140 ft | 476 kts | 12° |
| 2026-05-06 22:18 | -16.96788 | -41.46905 | 37135 ft | 476 kts | 12° |
| 2026-05-06 22:18 | -16.90364 | -41.45408 | 37141 ft | 476 kts | 12° |
| 2026-05-06 22:19 | -16.83882 | -41.43899 | 37131 ft | 476 kts | 12° |
| 2026-05-06 22:19 | -16.77412 | -41.42394 | 37140 ft | 477 kts | 12° |
| 2026-05-06 22:20 | -16.70930 | -41.40887 | 37136 ft | 477 kts | 11° |
| 2026-05-06 22:20 | -16.64455 | -41.39379 | 37139 ft | 477 kts | 11° |
| 2026-05-06 22:21 | -16.57972 | -41.37865 | 37136 ft | 477 kts | 11° |
| 2026-05-06 22:21 | -16.51481 | -41.36350 | 37139 ft | 478 kts | 11° |
| 2026-05-06 22:22 | -16.44986 | -41.34835 | 37138 ft | 478 kts | 11° |
| 2026-05-06 22:22 | -16.38494 | -41.33322 | 37129 ft | 478 kts | 11° |
| 2026-05-06 22:23 | -16.32033 | -41.31818 | 37122 ft | 479 kts | 11° |
| 2026-05-06 22:23 | -16.25515 | -41.30302 | 37118 ft | 479 kts | 11° |
| 2026-05-06 22:24 | -16.19007 | -41.28788 | 37124 ft | 479 kts | 11° |
| 2026-05-06 22:24 | -16.12490 | -41.27273 | 37115 ft | 480 kts | 11° |
| 2026-05-06 22:25 | -16.05971 | -41.25759 | 37122 ft | 479 kts | 11° |
| 2026-05-06 22:25 | -15.99458 | -41.24248 | 37111 ft | 479 kts | 11° |
| 2026-05-06 22:26 | -15.92953 | -41.22739 | 37105 ft | 480 kts | 11° |
| 2026-05-06 22:26 | -15.86473 | -41.21236 | 37109 ft | 480 kts | 11° |
| 2026-05-06 22:27 | -15.79958 | -41.19726 | 37103 ft | 480 kts | 11° |
| 2026-05-06 22:27 | -15.73426 | -41.18212 | 37104 ft | 480 kts | 11° |
| 2026-05-06 22:28 | -15.66904 | -41.16702 | 37099 ft | 480 kts | 11° |
| 2026-05-06 22:28 | -15.60378 | -41.15202 | 37109 ft | 480 kts | 11° |
| 2026-05-06 22:29 | -15.53854 | -41.13709 | 37097 ft | 480 kts | 11° |
| 2026-05-06 22:29 | -15.47332 | -41.12214 | 37104 ft | 480 kts | 11° |
| 2026-05-06 22:30 | -15.40790 | -41.10807 | 37096 ft | 480 kts | 9° |
| 2026-05-06 22:30 | -15.34280 | -41.09514 | 37102 ft | 479 kts | 9° |
| 2026-05-06 22:31 | -15.27728 | -41.08214 | 37099 ft | 479 kts | 9° |
| 2026-05-06 22:31 | -15.21179 | -41.06899 | 37107 ft | 479 kts | 9° |
| 2026-05-06 22:32 | -15.14633 | -41.05575 | 37097 ft | 479 kts | 9° |
| 2026-05-06 22:32 | -15.08099 | -41.04254 | 37103 ft | 479 kts | 9° |
| 2026-05-06 22:33 | -15.01559 | -41.02933 | 37096 ft | 479 kts | 9° |
| 2026-05-06 22:33 | -14.95021 | -41.01614 | 37102 ft | 479 kts | 9° |
| 2026-05-06 22:34 | -14.88474 | -41.00294 | 37094 ft | 479 kts | 9° |
| 2026-05-06 22:34 | -14.81921 | -40.98974 | 37094 ft | 480 kts | 9° |
| 2026-05-06 22:35 | -14.75364 | -40.97654 | 37084 ft | 480 kts | 9° |
| 2026-05-06 22:35 | -14.68799 | -40.96332 | 37082 ft | 480 kts | 9° |
| 2026-05-06 22:36 | -14.62277 | -40.95020 | 37082 ft | 480 kts | 9° |
| 2026-05-06 22:36 | -14.55714 | -40.93701 | 37088 ft | 481 kts | 8° |
| 2026-05-06 22:37 | -14.54605 | -40.93478 | 37084 ft | 481 kts | 8° |
| 2026-05-06 22:38 | -14.29914 | -40.88522 | 37082 ft | 480 kts | 8° |
| 2026-05-06 22:39 | -14.23364 | -40.87210 | 37094 ft | 479 kts | 8° |
| 2026-05-06 22:39 | -14.16817 | -40.85898 | 37072 ft | 479 kts | 8° |
| 2026-05-06 22:40 | -14.10319 | -40.84598 | 37073 ft | 479 kts | 8° |
| 2026-05-06 22:40 | -14.03781 | -40.83289 | 37074 ft | 478 kts | 8° |
| 2026-05-06 22:41 | -13.93984 | -40.81331 | 37064 ft | 478 kts | 8° |
| 2026-05-06 22:42 | -13.87452 | -40.80025 | 37077 ft | 478 kts | 8° |
| 2026-05-06 22:42 | -13.80929 | -40.78723 | 37074 ft | 478 kts | 8° |
| 2026-05-06 22:43 | -13.74403 | -40.77340 | 37070 ft | 480 kts | 14° |
| 2026-05-06 22:43 | -13.68292 | -40.74556 | 37081 ft | 483 kts | 30° |
| 2026-05-06 22:44 | -13.62530 | -40.70986 | 37069 ft | 484 kts | 30° |
| 2026-05-06 22:44 | -13.56800 | -40.67427 | 37076 ft | 484 kts | 30° |
| 2026-05-06 22:45 | -13.51008 | -40.63892 | 37075 ft | 484 kts | 30° |
| 2026-05-06 22:45 | -13.45195 | -40.60376 | 37073 ft | 484 kts | 29° |
| 2026-05-06 22:46 | -13.39388 | -40.56869 | 37072 ft | 484 kts | 29° |
| 2026-05-06 22:46 | -13.33570 | -40.53353 | 37070 ft | 484 kts | 29° |
| 2026-05-06 22:47 | -13.27767 | -40.49847 | 37069 ft | 484 kts | 29° |
| 2026-05-06 22:47 | -13.21958 | -40.46339 | 37066 ft | 484 kts | 29° |
| 2026-05-06 22:48 | -13.16193 | -40.42859 | 37060 ft | 484 kts | 29° |
| 2026-05-06 22:48 | -13.10391 | -40.39359 | 37069 ft | 484 kts | 29° |
| 2026-05-06 22:49 | -13.04581 | -40.35855 | 37059 ft | 484 kts | 29° |
| 2026-05-06 22:49 | -12.98766 | -40.32354 | 37067 ft | 484 kts | 29° |
| 2026-05-06 22:50 | -12.92943 | -40.28852 | 37062 ft | 484 kts | 29° |
| 2026-05-06 22:50 | -12.87127 | -40.25354 | 37060 ft | 485 kts | 29° |
| 2026-05-06 22:51 | -12.81333 | -40.21870 | 37052 ft | 486 kts | 29° |
| 2026-05-06 22:51 | -12.75490 | -40.18359 | 37046 ft | 487 kts | 28° |
| 2026-05-06 22:52 | -12.69644 | -40.14848 | 37046 ft | 487 kts | 28° |
| 2026-05-06 22:52 | -12.63792 | -40.11335 | 37048 ft | 487 kts | 28° |
| 2026-05-06 22:53 | -12.57936 | -40.07822 | 37047 ft | 488 kts | 28° |
| 2026-05-06 22:53 | -12.52075 | -40.04308 | 37047 ft | 488 kts | 28° |
| 2026-05-06 22:54 | -12.46213 | -40.00794 | 37039 ft | 489 kts | 28° |
| 2026-05-06 22:54 | -12.40337 | -39.97274 | 37045 ft | 489 kts | 28° |
| 2026-05-06 22:55 | -12.34464 | -39.93758 | 37031 ft | 489 kts | 28° |
| 2026-05-06 22:55 | -12.28635 | -39.90270 | 37034 ft | 488 kts | 28° |
| 2026-05-06 22:56 | -12.22765 | -39.86759 | 37038 ft | 488 kts | 28° |
| 2026-05-06 22:56 | -12.16905 | -39.83257 | 37039 ft | 488 kts | 28° |
| 2026-05-06 22:57 | -12.11046 | -39.79755 | 37037 ft | 488 kts | 28° |
| 2026-05-06 22:57 | -12.05187 | -39.76256 | 37031 ft | 487 kts | 28° |
| 2026-05-06 22:58 | -11.99327 | -39.72759 | 37040 ft | 487 kts | 28° |
| 2026-05-06 22:58 | -11.93474 | -39.69266 | 37033 ft | 487 kts | 28° |
| 2026-05-06 22:59 | -11.87650 | -39.65793 | 37037 ft | 487 kts | 28° |
| 2026-05-06 22:59 | -11.81814 | -39.62279 | 37034 ft | 487 kts | 28° |
| 2026-05-06 23:00 | -11.75976 | -39.58769 | 37044 ft | 487 kts | 28° |
| 2026-05-06 23:00 | -11.70118 | -39.55281 | 37033 ft | 487 kts | 28° |
| 2026-05-06 23:01 | -11.64269 | -39.51803 | 37044 ft | 486 kts | 28° |
| 2026-05-06 23:01 | -11.58429 | -39.48327 | 37037 ft | 486 kts | 27° |
| 2026-05-06 23:02 | -11.52597 | -39.44855 | 37038 ft | 485 kts | 27° |
| 2026-05-06 23:02 | -11.46769 | -39.41385 | 37031 ft | 485 kts | 27° |
| 2026-05-06 23:03 | -11.40953 | -39.37926 | 37031 ft | 484 kts | 27° |
| 2026-05-06 23:03 | -11.35179 | -39.34493 | 37040 ft | 483 kts | 27° |
| 2026-05-06 23:04 | -11.29385 | -39.31049 | 37038 ft | 482 kts | 27° |
| 2026-05-06 23:04 | -11.23602 | -39.27614 | 37037 ft | 481 kts | 27° |
| 2026-05-06 23:05 | -11.17824 | -39.24183 | 37040 ft | 480 kts | 27° |
| 2026-05-06 23:05 | -11.12057 | -39.20761 | 37037 ft | 479 kts | 27° |
| 2026-05-06 23:06 | -11.06293 | -39.17342 | 37042 ft | 479 kts | 27° |
| 2026-05-06 23:06 | -11.00534 | -39.13928 | 37033 ft | 478 kts | 27° |
| 2026-05-06 23:07 | -10.94783 | -39.10520 | 37035 ft | 478 kts | 27° |
| 2026-05-06 23:07 | -10.89037 | -39.07116 | 37025 ft | 478 kts | 27° |
| 2026-05-06 23:08 | -10.83326 | -39.03735 | 37033 ft | 478 kts | 27° |
| 2026-05-06 23:08 | -10.77579 | -39.00333 | 37026 ft | 478 kts | 27° |
| 2026-05-06 23:09 | -10.71833 | -38.96934 | 37029 ft | 477 kts | 27° |
| 2026-05-06 23:09 | -10.66090 | -38.93538 | 37026 ft | 477 kts | 27° |
| 2026-05-06 23:10 | -10.60345 | -38.90143 | 37027 ft | 477 kts | 27° |
| 2026-05-06 23:10 | -10.54592 | -38.86744 | 37024 ft | 478 kts | 27° |
| 2026-05-06 23:11 | -10.48843 | -38.83349 | 37035 ft | 478 kts | 27° |
| 2026-05-06 23:11 | -10.43100 | -38.79959 | 37027 ft | 478 kts | 26° |
| 2026-05-06 23:12 | -10.37354 | -38.76569 | 37023 ft | 477 kts | 26° |
| 2026-05-06 23:12 | -10.31648 | -38.73203 | 37031 ft | 477 kts | 26° |
| 2026-05-06 23:13 | -10.25906 | -38.69818 | 37026 ft | 477 kts | 26° |
| 2026-05-06 23:13 | -10.20167 | -38.66436 | 37029 ft | 476 kts | 26° |
| 2026-05-06 23:14 | -10.14438 | -38.63062 | 37034 ft | 476 kts | 26° |
| 2026-05-06 23:14 | -10.08716 | -38.59692 | 37034 ft | 475 kts | 26° |
| 2026-05-06 23:15 | -10.03043 | -38.56354 | 37027 ft | 474 kts | 26° |
| 2026-05-06 23:15 | -9.97330 | -38.52993 | 37028 ft | 474 kts | 26° |
| 2026-05-06 23:16 | -9.91594 | -38.49619 | 37030 ft | 473 kts | 26° |
| 2026-05-06 23:16 | -9.85893 | -38.46268 | 37017 ft | 473 kts | 26° |
| 2026-05-06 23:17 | -9.80210 | -38.42927 | 37036 ft | 472 kts | 26° |
| 2026-05-06 23:17 | -9.74534 | -38.39594 | 37026 ft | 471 kts | 26° |
| 2026-05-06 23:18 | -9.68845 | -38.36277 | 37016 ft | 471 kts | 26° |
| 2026-05-06 23:18 | -9.63156 | -38.32968 | 37017 ft | 471 kts | 26° |
| 2026-05-06 23:19 | -9.57468 | -38.29659 | 37018 ft | 471 kts | 26° |
| 2026-05-06 23:19 | -9.52745 | -38.26910 | 37016 ft | 470 kts | 26° |
| 2026-05-06 23:20 | -9.46152 | -38.23073 | 37019 ft | 470 kts | 26° |
| 2026-05-06 23:20 | -9.41400 | -38.20309 | 37017 ft | 470 kts | 26° |
| 2026-05-06 23:21 | -9.35728 | -38.17011 | 37020 ft | 470 kts | 26° |
| 2026-05-06 23:21 | -9.30052 | -38.13711 | 37018 ft | 470 kts | 26° |
| 2026-05-06 23:22 | -9.24365 | -38.10406 | 37021 ft | 470 kts | 26° |
| 2026-05-06 23:22 | -9.18722 | -38.07127 | 37019 ft | 471 kts | 26° |
| 2026-05-06 23:23 | -9.13047 | -38.03831 | 37021 ft | 471 kts | 26° |
| 2026-05-06 23:23 | -9.07376 | -38.00523 | 37016 ft | 471 kts | 26° |
| 2026-05-06 23:24 | -9.01712 | -37.97213 | 37030 ft | 469 kts | 25° |
| 2026-05-06 23:24 | -8.96065 | -37.93913 | 37028 ft | 468 kts | 25° |
| 2026-05-06 23:25 | -8.90434 | -37.90627 | 37021 ft | 466 kts | 25° |
| 2026-05-06 23:25 | -8.84833 | -37.87359 | 37024 ft | 464 kts | 25° |
| 2026-05-06 23:26 | -8.79254 | -37.84105 | 37028 ft | 461 kts | 25° |
| 2026-05-06 23:26 | -8.73701 | -37.80868 | 37024 ft | 459 kts | 25° |
| 2026-05-06 23:27 | -8.68172 | -37.77646 | 37029 ft | 458 kts | 25° |
| 2026-05-06 23:27 | -8.62648 | -37.74428 | 37026 ft | 458 kts | 25° |
| 2026-05-06 23:28 | -8.57128 | -37.71214 | 37025 ft | 458 kts | 25° |
| 2026-05-06 23:28 | -8.51640 | -37.68019 | 37031 ft | 458 kts | 25° |
| 2026-05-06 23:29 | -8.46113 | -37.64803 | 37033 ft | 459 kts | 25° |
| 2026-05-06 23:29 | -8.40575 | -37.61581 | 37031 ft | 460 kts | 25° |
| 2026-05-06 23:30 | -8.35023 | -37.58352 | 37025 ft | 461 kts | 25° |
| 2026-05-06 23:30 | -8.29462 | -37.55118 | 37028 ft | 461 kts | 25° |
| 2026-05-06 23:31 | -8.23891 | -37.51880 | 37030 ft | 462 kts | 25° |
| 2026-05-06 23:31 | -8.18389 | -37.48503 | 37032 ft | 465 kts | 31° |
| 2026-05-06 23:32 | -8.13187 | -37.44591 | 37030 ft | 467 kts | 33° |
| 2026-05-06 23:32 | -8.08027 | -37.40605 | 37039 ft | 466 kts | 33° |
| 2026-05-06 23:33 | -8.02848 | -37.36653 | 37032 ft | 466 kts | 33° |
| 2026-05-06 23:33 | -7.97693 | -37.32763 | 37039 ft | 465 kts | 32° |
| 2026-05-06 23:34 | -7.92505 | -37.28863 | 37033 ft | 464 kts | 32° |
| 2026-05-06 23:34 | -7.87329 | -37.24973 | 37035 ft | 463 kts | 32° |
| 2026-05-06 23:35 | -7.82169 | -37.21095 | 37035 ft | 462 kts | 32° |
| 2026-05-06 23:35 | -7.77009 | -37.17218 | 37039 ft | 461 kts | 32° |
| 2026-05-06 23:36 | -7.71870 | -37.13357 | 37040 ft | 460 kts | 32° |
| 2026-05-06 23:36 | -7.66740 | -37.09505 | 37037 ft | 459 kts | 32° |
| 2026-05-06 23:37 | -7.61614 | -37.05656 | 37039 ft | 459 kts | 32° |
| 2026-05-06 23:37 | -7.56496 | -37.01816 | 37034 ft | 458 kts | 32° |
| 2026-05-06 23:38 | -7.51384 | -36.97980 | 37040 ft | 458 kts | 32° |
| 2026-05-06 23:38 | -7.46305 | -36.94171 | 37038 ft | 458 kts | 32° |
| 2026-05-06 23:39 | -7.41188 | -36.90334 | 37025 ft | 458 kts | 32° |
| 2026-05-06 23:39 | -7.36074 | -36.86500 | 37036 ft | 458 kts | 32° |
| 2026-05-06 23:40 | -7.30899 | -36.82626 | 37044 ft | 469 kts | 32° |
| 2026-05-06 23:40 | -7.25595 | -36.78654 | 36930 ft | 475 kts | 32° |
| 2026-05-06 23:40 | -7.22958 | -36.76680 | 36369 ft | 481 kts | 32° |
| 2026-05-06 23:41 | -7.20281 | -36.74674 | 35768 ft | 479 kts | 33° |
| 2026-05-06 23:41 | -7.17608 | -36.72671 | 35086 ft | 480 kts | 33° |
| 2026-05-06 23:41 | -7.14925 | -36.70661 | 34397 ft | 481 kts | 33° |
| 2026-05-06 23:41 | -7.12235 | -36.68646 | 33672 ft | 483 kts | 33° |
| 2026-05-06 23:42 | -7.09532 | -36.66624 | 32902 ft | 485 kts | 33° |
| 2026-05-06 23:42 | -7.06821 | -36.64595 | 32110 ft | 487 kts | 33° |
| 2026-05-06 23:42 | -7.04105 | -36.62563 | 31555 ft | 484 kts | 34° |
| 2026-05-06 23:42 | -7.01409 | -36.60544 | 31000 ft | 480 kts | 34° |
| 2026-05-06 23:43 | -6.98738 | -36.58545 | 30441 ft | 476 kts | 34° |
| 2026-05-06 23:43 | -6.96093 | -36.56565 | 29895 ft | 472 kts | 34° |
| 2026-05-06 23:43 | -6.93467 | -36.54601 | 29343 ft | 468 kts | 34° |
| 2026-05-06 23:43 | -6.90864 | -36.52655 | 28779 ft | 464 kts | 34° |
| 2026-05-06 23:44 | -6.88288 | -36.50729 | 28220 ft | 460 kts | 34° |
| 2026-05-06 23:44 | -6.85736 | -36.48822 | 27670 ft | 455 kts | 34° |
| 2026-05-06 23:44 | -6.83206 | -36.46931 | 27105 ft | 451 kts | 34° |
| 2026-05-06 23:44 | -6.80696 | -36.45055 | 26558 ft | 446 kts | 34° |
| 2026-05-06 23:45 | -6.78211 | -36.43199 | 26010 ft | 441 kts | 34° |
| 2026-05-06 23:45 | -6.75757 | -36.41365 | 25467 ft | 436 kts | 34° |
| 2026-05-06 23:45 | -6.73364 | -36.39577 | 24937 ft | 432 kts | 34° |
| 2026-05-06 23:45 | -6.70938 | -36.37765 | 24395 ft | 427 kts | 34° |
| 2026-05-06 23:46 | -6.68567 | -36.35995 | 23856 ft | 422 kts | 34° |
| 2026-05-06 23:46 | -6.66220 | -36.34242 | 23325 ft | 417 kts | 34° |
| 2026-05-06 23:46 | -6.63934 | -36.32535 | 22804 ft | 413 kts | 34° |
| 2026-05-06 23:46 | -6.61638 | -36.30822 | 22280 ft | 409 kts | 34° |
| 2026-05-06 23:47 | -6.59366 | -36.29126 | 21758 ft | 405 kts | 35° |
| 2026-05-06 23:47 | -6.57118 | -36.27448 | 21240 ft | 401 kts | 35° |
| 2026-05-06 23:47 | -6.54887 | -36.25784 | 20724 ft | 397 kts | 35° |
| 2026-05-06 23:47 | -6.52680 | -36.24138 | 20211 ft | 394 kts | 36° |
| 2026-05-06 23:48 | -6.50486 | -36.22502 | 19703 ft | 390 kts | 36° |
| 2026-05-06 23:48 | -6.48310 | -36.20879 | 19193 ft | 387 kts | 36° |
| 2026-05-06 23:48 | -6.46152 | -36.19269 | 18688 ft | 384 kts | 36° |
| 2026-05-06 23:48 | -6.44005 | -36.17667 | 18185 ft | 382 kts | 36° |
| 2026-05-06 23:49 | -6.41884 | -36.16086 | 17691 ft | 379 kts | 37° |
| 2026-05-06 23:49 | -6.39771 | -36.14510 | 17202 ft | 376 kts | 37° |
| 2026-05-06 23:49 | -6.37678 | -36.12950 | 16711 ft | 373 kts | 37° |
| 2026-05-06 23:49 | -6.35629 | -36.11423 | 16233 ft | 370 kts | 37° |
| 2026-05-06 23:50 | -6.33543 | -36.09868 | 15746 ft | 367 kts | 37° |
| 2026-05-06 23:50 | -6.29495 | -36.06851 | 14799 ft | 362 kts | 38° |
| 2026-05-06 23:50 | -6.27480 | -36.05350 | 14328 ft | 359 kts | 38° |
| 2026-05-06 23:51 | -6.25483 | -36.03861 | 13862 ft | 356 kts | 38° |
| 2026-05-06 23:51 | -6.23504 | -36.02387 | 13400 ft | 353 kts | 38° |
| 2026-05-06 23:51 | -6.21539 | -36.00923 | 12935 ft | 350 kts | 38° |
| 2026-05-06 23:51 | -6.19592 | -35.99473 | 12479 ft | 347 kts | 39° |
| 2026-05-06 23:52 | -6.17655 | -35.98030 | 12020 ft | 344 kts | 39° |
| 2026-05-06 23:52 | -6.15740 | -35.96604 | 11571 ft | 341 kts | 39° |
| 2026-05-06 23:52 | -6.13836 | -35.95186 | 11128 ft | 339 kts | 39° |
| 2026-05-06 23:52 | -6.11951 | -35.93782 | 10668 ft | 336 kts | 39° |
| 2026-05-06 23:53 | -6.10122 | -35.92420 | 10498 ft | 326 kts | 39° |
| 2026-05-06 23:53 | -6.08329 | -35.91087 | 10337 ft | 316 kts | 38° |
| 2026-05-06 23:53 | -6.06572 | -35.89780 | 10192 ft | 305 kts | 39° |
| 2026-05-06 23:53 | -6.04909 | -35.88542 | 10064 ft | 296 kts | 39° |
| 2026-05-06 23:54 | -6.03279 | -35.87329 | 9889 ft | 288 kts | 39° |
| 2026-05-06 23:54 | -6.01667 | -35.86129 | 9577 ft | 287 kts | 38° |
| 2026-05-06 23:54 | -6.00070 | -35.84939 | 9281 ft | 284 kts | 38° |
| 2026-05-06 23:54 | -5.98487 | -35.83759 | 8979 ft | 283 kts | 38° |
| 2026-05-06 23:55 | -5.96909 | -35.82584 | 8673 ft | 281 kts | 38° |
| 2026-05-06 23:55 | -5.95363 | -35.81433 | 8371 ft | 280 kts | 38° |
| 2026-05-06 23:55 | -5.93801 | -35.80271 | 8064 ft | 278 kts | 38° |
| 2026-05-06 23:55 | -5.92249 | -35.79116 | 7755 ft | 277 kts | 39° |
| 2026-05-06 23:56 | -5.90703 | -35.77965 | 7450 ft | 276 kts | 39° |
| 2026-05-06 23:56 | -5.89159 | -35.76817 | 7144 ft | 275 kts | 39° |
| 2026-05-06 23:56 | -5.87628 | -35.75678 | 6844 ft | 274 kts | 39° |
| 2026-05-06 23:56 | -5.86099 | -35.74541 | 6539 ft | 273 kts | 39° |
| 2026-05-06 23:57 | -5.84578 | -35.73409 | 6238 ft | 272 kts | 39° |
| 2026-05-06 23:57 | -5.83062 | -35.72281 | 5934 ft | 271 kts | 39° |
| 2026-05-06 23:57 | -5.81550 | -35.71156 | 5640 ft | 270 kts | 39° |
| 2026-05-06 23:57 | -5.80044 | -35.70036 | 5349 ft | 269 kts | 39° |
| 2026-05-06 23:58 | -5.78545 | -35.68921 | 5048 ft | 267 kts | 39° |
| 2026-05-06 23:58 | -5.77055 | -35.67814 | 4774 ft | 266 kts | 39° |
| 2026-05-06 23:58 | -5.75572 | -35.66712 | 4490 ft | 265 kts | 39° |
| 2026-05-06 23:58 | -5.74110 | -35.65604 | 4249 ft | 259 kts | 45° |
| 2026-05-06 23:59 | -5.73202 | -35.64170 | 4151 ft | 235 kts | 81° |
| 2026-05-06 23:59 | -5.73130 | -35.62678 | 4066 ft | 218 kts | 94° |
| 2026-05-06 23:59 | -5.73171 | -35.61198 | 3934 ft | 206 kts | 96° |
| 2026-05-06 23:59 | -5.73294 | -35.59818 | 3891 ft | 191 kts | 99° |
| 2026-05-07 00:00 | -5.73476 | -35.58509 | 3900 ft | 186 kts | 101° |
| 2026-05-07 00:00 | -5.73671 | -35.57247 | 3727 ft | 181 kts | 102° |
| 2026-05-07 00:00 | -5.73863 | -35.56038 | 3597 ft | 171 kts | 102° |
| 2026-05-07 00:00 | -5.73985 | -35.55277 | 3637 ft | 166 kts | 102° |
| 2026-05-07 00:01 | -5.74240 | -35.53699 | 3363 ft | 173 kts | 102° |
| 2026-05-07 00:01 | -5.74429 | -35.52527 | 3131 ft | 171 kts | 102° |
| 2026-05-07 00:01 | -5.74616 | -35.51359 | 2907 ft | 168 kts | 102° |
| 2026-05-07 00:01 | -5.74801 | -35.50210 | 2683 ft | 165 kts | 102° |
| 2026-05-07 00:02 | -5.74986 | -35.49066 | 2469 ft | 167 kts | 101° |
| 2026-05-07 00:02 | -5.75172 | -35.47907 | 2252 ft | 170 kts | 101° |
| 2026-05-07 00:02 | -5.75361 | -35.46731 | 2030 ft | 171 kts | 101° |
| 2026-05-07 00:02 | -5.75550 | -35.45558 | 1787 ft | 167 kts | 100° |
| 2026-05-07 00:03 | -5.75729 | -35.44441 | 1592 ft | 155 kts | 100° |
| 2026-05-07 00:03 | -5.75901 | -35.43378 | 1372 ft | 155 kts | 99° |
| 2026-05-07 00:03 | -5.76070 | -35.42328 | 1165 ft | 151 kts | 99° |
| 2026-05-07 00:03 | -5.76236 | -35.41297 | 974 ft | 149 kts | 99° |
| 2026-05-07 00:04 | -5.76398 | -35.40268 | 790 ft | 149 kts | 99° |
| 2026-05-07 00:04 | -5.76497 | -35.39584 | 684 ft | 149 kts | 100° |
| 2026-05-07 00:04 | -5.76669 | -35.38557 | 520 ft | 151 kts | 99° |
| 2026-05-07 00:04 | -5.76841 | -35.37512 | 293 ft | 150 kts | 99° |
| 2026-05-07 00:05 | -5.76995 | -35.36566 | 273 ft | 118 kts | 99° |
| 2026-05-07 00:05 | -5.77103 | -35.35905 | 273 ft | 74 kts | 99° |
| 2026-05-07 00:05 | -5.77173 | -35.35492 | 273 ft | 55 kts | 99° |
| 2026-05-07 00:05 | -5.77145 | -35.35332 | 273 ft | 18 kts | 22° |
| 2026-05-07 00:06 | -5.77031 | -35.35342 | 274 ft | 17 kts | 313° |
| 2026-05-07 00:06 | -5.76999 | -35.35455 | 273 ft | 17 kts | 279° |
| 2026-05-07 00:06 | -5.76975 | -35.35603 | 273 ft | 16 kts | 279° |
| 2026-05-07 00:06 | -5.76964 | -35.35676 | 273 ft | 15 kts | 279° |
| 2026-05-07 00:07 | -5.76948 | -35.35779 | 273 ft | 15 kts | 279° |
| 2026-05-07 00:07 | -5.76931 | -35.35878 | 273 ft | 14 kts | 281° |
| 2026-05-07 00:07 | -5.76914 | -35.35974 | 276 ft | 14 kts | 279° |
| 2026-05-07 00:07 | -5.76896 | -35.36083 | 273 ft | 19 kts | 279° |
| 2026-05-07 00:08 | -5.76869 | -35.36240 | 273 ft | 26 kts | 279° |
| 2026-05-07 00:08 | -5.76837 | -35.36428 | 273 ft | 27 kts | 279° |
| 2026-05-07 00:08 | -5.76825 | -35.36502 | 273 ft | 0 kts | 279° |